sensor_id;sensor_type;location;lat;lon;timestamp;pressure;altitude;pressure_sealevel;temperature;humidity
17649;BME280;8943;51.110;-4.158;2023-02-28T00:00:08;102953.56;;;10.60;45.36
17649;BME280;8943;51.110;-4.158;2023-02-28T00:02:37;102952.88;;;10.54;45.27
17649;BME280;8943;51.110;-4.158;2023-02-28T00:05:06;102953.91;;;10.50;45.45
17649;BME280;8943;51.110;-4.158;2023-02-28T00:07:36;102946.13;;;10.44;45.69
17649;BME280;8943;51.110;-4.158;2023-02-28T00:10:06;102951.34;;;10.47;45.69
17649;BME280;8943;51.110;-4.158;2023-02-28T00:12:35;102939.88;;;10.45;45.60
17649;BME280;8943;51.110;-4.158;2023-02-28T00:15:06;102940.81;;;10.44;45.92
17649;BME280;8943;51.110;-4.158;2023-02-28T00:17:34;102949.84;;;10.40;45.71
17649;BME280;8943;51.110;-4.158;2023-02-28T00:20:06;102962.47;;;10.35;45.82
17649;BME280;8943;51.110;-4.158;2023-02-28T00:22:37;102973.13;;;10.35;46.01
17649;BME280;8943;51.110;-4.158;2023-02-28T00:25:08;102972.34;;;10.31;45.94
17649;BME280;8943;51.110;-4.158;2023-02-28T00:27:37;102972.47;;;10.28;45.92
17649;BME280;8943;51.110;-4.158;2023-02-28T00:30:09;102966.41;;;10.25;45.98
17649;BME280;8943;51.110;-4.158;2023-02-28T00:32:38;102971.72;;;10.23;45.95
17649;BME280;8943;51.110;-4.158;2023-02-28T00:35:08;102964.66;;;10.22;45.99
17649;BME280;8943;51.110;-4.158;2023-02-28T00:37:38;102970.00;;;10.22;46.04
17649;BME280;8943;51.110;-4.158;2023-02-28T00:40:08;102976.13;;;10.26;46.05
17649;BME280;8943;51.110;-4.158;2023-02-28T00:42:38;102971.66;;;10.26;46.21
17649;BME280;8943;51.110;-4.158;2023-02-28T00:45:07;102975.03;;;10.31;46.06
17649;BME280;8943;51.110;-4.158;2023-02-28T00:47:36;102981.13;;;10.35;46.08
17649;BME280;8943;51.110;-4.158;2023-02-28T00:50:05;102973.94;;;10.37;46.12
17649;BME280;8943;51.110;-4.158;2023-02-28T00:52:34;102974.63;;;10.42;46.19
17649;BME280;8943;51.110;-4.158;2023-02-28T00:55:04;102972.72;;;10.46;46.10
17649;BME280;8943;51.110;-4.158;2023-02-28T00:57:32;102959.31;;;10.47;46.06
17649;BME280;8943;51.110;-4.158;2023-02-28T01:00:01;102953.06;;;10.48;46.22
17649;BME280;8943;51.110;-4.158;2023-02-28T01:02:30;102958.38;;;10.50;46.17
17649;BME280;8943;51.110;-4.158;2023-02-28T01:04:59;102962.75;;;10.51;46.19
17649;BME280;8943;51.110;-4.158;2023-02-28T01:07:27;102967.41;;;10.46;45.98
17649;BME280;8943;51.110;-4.158;2023-02-28T01:09:55;102961.31;;;10.42;45.95
17649;BME280;8943;51.110;-4.158;2023-02-28T01:12:25;102960.59;;;10.37;46.03
17649;BME280;8943;51.110;-4.158;2023-02-28T01:14:56;102958.03;;;10.34;45.94
17649;BME280;8943;51.110;-4.158;2023-02-28T01:17:25;102952.00;;;10.29;46.04
17649;BME280;8943;51.110;-4.158;2023-02-28T01:19:55;102959.28;;;10.25;46.12
17649;BME280;8943;51.110;-4.158;2023-02-28T01:22:23;102960.25;;;10.21;46.23
17649;BME280;8943;51.110;-4.158;2023-02-28T01:24:51;102953.22;;;10.19;46.37
17649;BME280;8943;51.110;-4.158;2023-02-28T01:27:20;102956.84;;;10.18;46.12
17649;BME280;8943;51.110;-4.158;2023-02-28T01:29:50;102963.91;;;10.19;46.35
17649;BME280;8943;51.110;-4.158;2023-02-28T01:32:19;102962.06;;;10.21;46.52
17649;BME280;8943;51.110;-4.158;2023-02-28T01:34:47;102961.97;;;10.24;46.37
17649;BME280;8943;51.110;-4.158;2023-02-28T01:37:16;102964.53;;;10.27;46.49
17649;BME280;8943;51.110;-4.158;2023-02-28T01:39:44;102970.56;;;10.32;46.56
17649;BME280;8943;51.110;-4.158;2023-02-28T01:42:13;102970.31;;;10.38;46.62
17649;BME280;8943;51.110;-4.158;2023-02-28T01:45:08;102974.63;;;10.42;46.36
17649;BME280;8943;51.110;-4.158;2023-02-28T01:47:46;102971.91;;;10.44;46.45
17649;BME280;8943;51.110;-4.158;2023-02-28T01:50:18;102975.31;;;10.47;46.67
17649;BME280;8943;51.110;-4.158;2023-02-28T01:52:47;102973.34;;;10.52;46.44
17649;BME280;8943;51.110;-4.158;2023-02-28T01:55:18;102975.91;;;10.55;46.40
17649;BME280;8943;51.110;-4.158;2023-02-28T01:57:50;102964.31;;;10.56;46.33
17649;BME280;8943;51.110;-4.158;2023-02-28T02:00:23;102967.06;;;10.55;46.27
17649;BME280;8943;51.110;-4.158;2023-02-28T02:02:59;102967.16;;;10.52;46.22
17649;BME280;8943;51.110;-4.158;2023-02-28T02:05:30;102964.66;;;10.47;46.27
17649;BME280;8943;51.110;-4.158;2023-02-28T02:08:03;102964.66;;;10.47;46.49
17649;BME280;8943;51.110;-4.158;2023-02-28T02:10:34;102962.13;;;10.44;46.53
17649;BME280;8943;51.110;-4.158;2023-02-28T02:13:18;102966.41;;;10.48;46.40
17649;BME280;8943;51.110;-4.158;2023-02-28T02:15:59;102968.16;;;10.49;46.57
17649;BME280;8943;51.110;-4.158;2023-02-28T02:18:34;102967.16;;;10.52;46.24
17649;BME280;8943;51.110;-4.158;2023-02-28T02:21:39;102975.91;;;10.55;46.00
17649;BME280;8943;51.110;-4.158;2023-02-28T02:24:44;102977.66;;;10.56;46.34
17649;BME280;8943;51.110;-4.158;2023-02-28T02:27:23;102978.59;;;10.55;46.51
17649;BME280;8943;51.110;-4.158;2023-02-28T02:30:14;102975.94;;;10.54;46.47
17649;BME280;8943;51.110;-4.158;2023-02-28T02:35:56;102977.81;;;10.52;46.41
17649;BME280;8943;51.110;-4.158;2023-02-28T02:38:32;102979.44;;;10.56;46.71
17649;BME280;8943;51.110;-4.158;2023-02-28T02:41:08;102973.25;;;10.55;46.71
17649;BME280;8943;51.110;-4.158;2023-02-28T02:43:41;102973.13;;;10.58;46.70
17649;BME280;8943;51.110;-4.158;2023-02-28T02:46:15;102973.94;;;10.61;46.28
17649;BME280;8943;51.110;-4.158;2023-02-28T02:48:46;102974.88;;;10.60;46.36
17649;BME280;8943;51.110;-4.158;2023-02-28T02:51:17;102976.63;;;10.61;46.60
17649;BME280;8943;51.110;-4.158;2023-02-28T02:53:52;102983.69;;;10.62;46.54
17649;BME280;8943;51.110;-4.158;2023-02-28T02:56:25;102974.03;;;10.59;46.59
17649;BME280;8943;51.110;-4.158;2023-02-28T02:58:59;102980.22;;;10.60;46.82
17649;BME280;8943;51.110;-4.158;2023-02-28T03:01:31;102980.22;;;10.60;46.55
17649;BME280;8943;51.110;-4.158;2023-02-28T03:04:02;102965.09;;;10.60;46.63
17649;BME280;8943;51.110;-4.158;2023-02-28T03:06:32;102965.94;;;10.61;46.78
17649;BME280;8943;51.110;-4.158;2023-02-28T03:09:02;102968.56;;;10.62;46.63
17649;BME280;8943;51.110;-4.158;2023-02-28T03:11:32;102974.72;;;10.64;46.81
17649;BME280;8943;51.110;-4.158;2023-02-28T03:14:18;102972.78;;;10.68;46.67
17649;BME280;8943;51.110;-4.158;2023-02-28T03:17:13;102978.94;;;10.70;46.70
17649;BME280;8943;51.110;-4.158;2023-02-28T03:19:53;102978.81;;;10.73;46.77
17649;BME280;8943;51.110;-4.158;2023-02-28T03:22:45;102972.50;;;10.75;46.51
17649;BME280;8943;51.110;-4.158;2023-02-28T03:25:27;102976.03;;;10.76;46.83
17649;BME280;8943;51.110;-4.158;2023-02-28T03:28:03;102974.16;;;10.78;46.60
17649;BME280;8943;51.110;-4.158;2023-02-28T03:30:40;102977.66;;;10.80;46.75
17649;BME280;8943;51.110;-4.158;2023-02-28T03:33:12;102980.31;;;10.80;46.81
17649;BME280;8943;51.110;-4.158;2023-02-28T03:35:45;102984.72;;;10.81;46.82
17649;BME280;8943;51.110;-4.158;2023-02-28T03:38:20;102984.72;;;10.81;46.69
17649;BME280;8943;51.110;-4.158;2023-02-28T03:41:01;102988.25;;;10.81;46.68
17649;BME280;8943;51.110;-4.158;2023-02-28T03:43:34;102984.66;;;10.82;46.38
17649;BME280;8943;51.110;-4.158;2023-02-28T03:46:08;102993.50;;;10.85;46.91
17649;BME280;8943;51.110;-4.158;2023-02-28T03:48:42;102986.53;;;10.80;46.65
17649;BME280;8943;51.110;-4.158;2023-02-28T03:51:15;102991.06;;;10.78;46.58
17649;BME280;8943;51.110;-4.158;2023-02-28T03:53:50;102988.50;;;10.75;46.60
17649;BME280;8943;51.110;-4.158;2023-02-28T03:56:22;102993.91;;;10.74;46.52
17649;BME280;8943;51.110;-4.158;2023-02-28T03:58:57;102990.34;;;10.73;46.71
17649;BME280;8943;51.110;-4.158;2023-02-28T04:01:30;102988.56;;;10.74;46.79
17649;BME280;8943;51.110;-4.158;2023-02-28T04:04:00;102986.69;;;10.76;46.95
17649;BME280;8943;51.110;-4.158;2023-02-28T04:06:30;102991.16;;;10.75;46.83
17649;BME280;8943;51.110;-4.158;2023-02-28T04:09:02;102991.06;;;10.78;46.84
17649;BME280;8943;51.110;-4.158;2023-02-28T04:11:33;102984.81;;;10.78;46.60
17649;BME280;8943;51.110;-4.158;2023-02-28T04:14:04;102985.91;;;10.74;46.93
17649;BME280;8943;51.110;-4.158;2023-02-28T04:16:33;102981.59;;;10.70;46.61
17649;BME280;8943;51.110;-4.158;2023-02-28T04:19:02;102979.03;;;10.67;46.37
17649;BME280;8943;51.110;-4.158;2023-02-28T04:21:33;102980.22;;;10.60;46.41
17649;BME280;8943;51.110;-4.158;2023-02-28T04:24:04;102983.16;;;10.52;46.41
17649;BME280;8943;51.110;-4.158;2023-02-28T04:26:34;102986.16;;;10.43;46.38
17649;BME280;8943;51.110;-4.158;2023-02-28T04:29:04;102985.50;;;10.36;46.77
17649;BME280;8943;51.110;-4.158;2023-02-28T04:31:32;102989.38;;;10.27;46.42
17649;BME280;8943;51.110;-4.158;2023-02-28T04:34:01;102993.16;;;10.20;46.40
17649;BME280;8943;51.110;-4.158;2023-02-28T04:36:29;102992.41;;;10.17;46.88
17649;BME280;8943;51.110;-4.158;2023-02-28T04:38:58;102996.19;;;10.10;46.23
17649;BME280;8943;51.110;-4.158;2023-02-28T04:41:28;102989.34;;;10.02;46.27
17649;BME280;8943;51.110;-4.158;2023-02-28T04:43:59;102984.28;;;9.95;46.23
17649;BME280;8943;51.110;-4.158;2023-02-28T04:46:27;102994.28;;;9.88;46.21
17649;BME280;8943;51.110;-4.158;2023-02-28T04:48:55;102993.63;;;9.82;46.41
17649;BME280;8943;51.110;-4.158;2023-02-28T04:51:23;102988.47;;;9.75;46.25
17649;BME280;8943;51.110;-4.158;2023-02-28T04:53:52;102990.44;;;9.70;46.22
17649;BME280;8943;51.110;-4.158;2023-02-28T04:56:21;102995.03;;;9.65;46.26
17649;BME280;8943;51.110;-4.158;2023-02-28T04:58:50;102982.81;;;9.60;46.16
17649;BME280;8943;51.110;-4.158;2023-02-28T05:01:23;102990.91;;;9.57;46.23
17649;BME280;8943;51.110;-4.158;2023-02-28T05:03:53;102997.28;;;9.51;46.23
17649;BME280;8943;51.110;-4.158;2023-02-28T05:06:22;103001.84;;;9.47;46.26
17649;BME280;8943;51.110;-4.158;2023-02-28T05:08:51;102993.16;;;9.42;46.39
17649;BME280;8943;51.110;-4.158;2023-02-28T05:11:22;103008.28;;;9.40;46.46
17649;BME280;8943;51.110;-4.158;2023-02-28T05:13:52;103001.31;;;9.36;46.23
17649;BME280;8943;51.110;-4.158;2023-02-28T05:16:22;103010.34;;;9.32;46.66
17649;BME280;8943;51.110;-4.158;2023-02-28T05:18:50;103020.19;;;9.28;46.43
17649;BME280;8943;51.110;-4.158;2023-02-28T05:21:26;103011.50;;;9.22;46.22
17649;BME280;8943;51.110;-4.158;2023-02-28T05:23:56;103011.81;;;9.13;46.56
17649;BME280;8943;51.110;-4.158;2023-02-28T05:26:25;103002.34;;;9.04;46.64
17649;BME280;8943;51.110;-4.158;2023-02-28T05:28:55;103005.22;;;8.96;46.61
17649;BME280;8943;51.110;-4.158;2023-02-28T05:31:23;103005.41;;;8.90;46.82
17649;BME280;8943;51.110;-4.158;2023-02-28T05:33:52;103003.81;;;8.83;46.55
17649;BME280;8943;51.110;-4.158;2023-02-28T05:36:21;103023.34;;;8.82;46.66
17649;BME280;8943;51.110;-4.158;2023-02-28T05:38:50;103020.75;;;8.81;46.84
17649;BME280;8943;51.110;-4.158;2023-02-28T05:41:19;103024.28;;;8.81;46.76
17649;BME280;8943;51.110;-4.158;2023-02-28T05:43:48;103019.88;;;8.80;46.74
17649;BME280;8943;51.110;-4.158;2023-02-28T05:46:18;103021.69;;;8.80;46.35
17649;BME280;8943;51.110;-4.158;2023-02-28T05:48:47;103028.88;;;8.76;46.86
17649;BME280;8943;51.110;-4.158;2023-02-28T05:51:15;103036.78;;;8.77;46.82
17649;BME280;8943;51.110;-4.158;2023-02-28T05:53:43;103035.91;;;8.77;47.00
17649;BME280;8943;51.110;-4.158;2023-02-28T05:56:11;103033.25;;;8.77;46.91
17649;BME280;8943;51.110;-4.158;2023-02-28T05:58:40;103028.66;;;8.82;47.09
17649;BME280;8943;51.110;-4.158;2023-02-28T06:01:31;103033.78;;;8.90;47.10
17649;BME280;8943;51.110;-4.158;2023-02-28T06:04:00;103029.19;;;8.95;47.23
17649;BME280;8943;51.110;-4.158;2023-02-28T06:06:28;103033.38;;;9.03;47.06
17649;BME280;8943;51.110;-4.158;2023-02-28T06:08:57;103046.34;;;9.14;47.34
17649;BME280;8943;51.110;-4.158;2023-02-28T06:11:25;103041.63;;;9.24;47.41
17649;BME280;8943;51.110;-4.158;2023-02-28T06:13:55;103043.00;;;9.36;47.38
17649;BME280;8943;51.110;-4.158;2023-02-28T06:16:28;103049.75;;;9.47;47.29
17649;BME280;8943;51.110;-4.158;2023-02-28T06:18:59;103045.88;;;9.58;47.11
17649;BME280;8943;51.110;-4.158;2023-02-28T06:21:28;103056.25;;;9.67;47.09
17649;BME280;8943;51.110;-4.158;2023-02-28T06:23:57;103058.56;;;9.76;47.32
17649;BME280;8943;51.110;-4.158;2023-02-28T06:26:25;103061.00;;;9.84;47.10
17649;BME280;8943;51.110;-4.158;2023-02-28T06:28:54;103073.16;;;9.92;47.01
17649;BME280;8943;51.110;-4.158;2023-02-28T06:31:22;103069.34;;;9.99;47.04
17649;BME280;8943;51.110;-4.158;2023-02-28T06:33:54;103065.56;;;10.06;46.92
17649;BME280;8943;51.110;-4.158;2023-02-28T06:36:22;103074.16;;;10.15;47.00
17649;BME280;8943;51.110;-4.158;2023-02-28T06:38:50;103073.09;;;10.20;46.82
17649;BME280;8943;51.110;-4.158;2023-02-28T06:41:22;103079.13;;;10.27;46.85
17649;BME280;8943;51.110;-4.158;2023-02-28T06:43:51;103082.50;;;10.32;46.94
17649;BME280;8943;51.110;-4.158;2023-02-28T06:46:20;103078.66;;;10.39;46.66
17649;BME280;8943;51.110;-4.158;2023-02-28T06:48:49;103076.75;;;10.44;46.79
17649;BME280;8943;51.110;-4.158;2023-02-28T06:51:20;103068.56;;;10.49;46.42
17649;BME280;8943;51.110;-4.158;2023-02-28T06:53:51;103072.81;;;10.54;46.50
17649;BME280;8943;51.110;-4.158;2023-02-28T06:56:19;103070.09;;;10.56;46.66
17649;BME280;8943;51.110;-4.158;2023-02-28T06:58:48;103073.53;;;10.60;46.65
17649;BME280;8943;51.110;-4.158;2023-02-28T07:01:17;103073.53;;;10.60;46.40
17649;BME280;8943;51.110;-4.158;2023-02-28T07:03:46;103069.81;;;10.64;46.42
17649;BME280;8943;51.110;-4.158;2023-02-28T07:06:21;103064.44;;;10.65;46.41
17649;BME280;8943;51.110;-4.158;2023-02-28T07:08:51;103077.53;;;10.71;46.42
17649;BME280;8943;51.110;-4.158;2023-02-28T07:11:19;103079.22;;;10.74;46.41
17649;BME280;8943;51.110;-4.158;2023-02-28T07:13:49;103078.16;;;10.78;46.38
17649;BME280;8943;51.110;-4.158;2023-02-28T07:16:17;103079.09;;;10.77;46.24
17649;BME280;8943;51.110;-4.158;2023-02-28T07:18:47;103087.09;;;10.77;46.59
17649;BME280;8943;51.110;-4.158;2023-02-28T07:21:16;103087.09;;;10.77;46.40
17649;BME280;8943;51.110;-4.158;2023-02-28T07:23:45;103082.69;;;10.76;46.11
17649;BME280;8943;51.110;-4.158;2023-02-28T07:26:16;103084.44;;;10.77;46.18
17649;BME280;8943;51.110;-4.158;2023-02-28T07:28:46;103084.41;;;10.78;46.44
17649;BME280;8943;51.110;-4.158;2023-02-28T07:31:16;103080.75;;;10.81;46.25
17649;BME280;8943;51.110;-4.158;2023-02-28T07:33:45;103089.38;;;10.88;46.42
17649;BME280;8943;51.110;-4.158;2023-02-28T07:36:16;103090.22;;;10.88;46.30
17649;BME280;8943;51.110;-4.158;2023-02-28T07:38:48;103095.47;;;10.91;45.88
17649;BME280;8943;51.110;-4.158;2023-02-28T07:41:18;103094.53;;;10.92;46.03
17649;BME280;8943;51.110;-4.158;2023-02-28T07:43:47;103090.97;;;10.93;46.47
17649;BME280;8943;51.110;-4.158;2023-02-28T07:46:16;103092.69;;;10.94;46.53
17649;BME280;8943;51.110;-4.158;2023-02-28T07:48:47;103087.38;;;10.94;46.34
17649;BME280;8943;51.110;-4.158;2023-02-28T07:51:15;103089.09;;;10.95;46.30
17649;BME280;8943;51.110;-4.158;2023-02-28T07:53:44;103097.03;;;10.97;46.28
17649;BME280;8943;51.110;-4.158;2023-02-28T07:56:13;103090.72;;;10.99;46.39
17649;BME280;8943;51.110;-4.158;2023-02-28T07:58:42;103092.38;;;11.03;46.34
17649;BME280;8943;51.110;-4.158;2023-02-28T08:01:11;103102.69;;;11.13;46.58
17649;BME280;8943;51.110;-4.158;2023-02-28T08:03:39;103095.25;;;11.21;46.53
17649;BME280;8943;51.110;-4.158;2023-02-28T08:06:15;103095.00;;;11.27;46.58
17649;BME280;8943;51.110;-4.158;2023-02-28T08:08:43;103090.25;;;11.35;46.55
17649;BME280;8943;51.110;-4.158;2023-02-28T08:11:15;103091.88;;;11.39;46.44
17649;BME280;8943;51.110;-4.158;2023-02-28T08:13:45;103083.88;;;11.39;46.35
17649;BME280;8943;51.110;-4.158;2023-02-28T08:16:16;103084.81;;;11.38;46.56
17649;BME280;8943;51.110;-4.158;2023-02-28T08:18:50;103088.28;;;11.40;46.24
17649;BME280;8943;51.110;-4.158;2023-02-28T08:21:19;103084.56;;;11.44;46.63
17649;BME280;8943;51.110;-4.158;2023-02-28T08:23:49;103085.25;;;11.49;46.61
17649;BME280;8943;51.110;-4.158;2023-02-28T08:26:22;103089.47;;;11.55;46.47
17649;BME280;8943;51.110;-4.158;2023-02-28T08:28:52;103085.69;;;11.60;46.09
17649;BME280;8943;51.110;-4.158;2023-02-28T08:31:23;103095.13;;;11.69;46.31
17649;BME280;8943;51.110;-4.158;2023-02-28T08:33:58;103086.00;;;11.75;46.22
17649;BME280;8943;51.110;-4.158;2023-02-28T08:36:27;103078.81;;;11.77;46.30
17649;BME280;8943;51.110;-4.158;2023-02-28T08:38:57;103071.34;;;11.85;46.10
17649;BME280;8943;51.110;-4.158;2023-02-28T08:41:30;103069.34;;;11.90;46.40
17649;BME280;8943;51.110;-4.158;2023-02-28T08:43:59;103073.47;;;11.99;46.44
17649;BME280;8943;51.110;-4.158;2023-02-28T08:46:35;103072.88;;;12.13;46.79
17649;BME280;8943;51.110;-4.158;2023-02-28T08:49:31;103067.94;;;12.24;46.67
17649;BME280;8943;51.110;-4.158;2023-02-28T08:52:24;103077.19;;;12.37;46.62
17649;BME280;8943;51.110;-4.158;2023-02-28T08:54:54;103079.38;;;12.48;46.28
17649;BME280;8943;51.110;-4.158;2023-02-28T08:57:24;103078.50;;;12.47;45.91
17649;BME280;8943;51.110;-4.158;2023-02-28T08:59:54;103076.59;;;12.51;46.44
17649;BME280;8943;51.110;-4.158;2023-02-28T09:02:22;103072.69;;;12.58;46.67
17649;BME280;8943;51.110;-4.158;2023-02-28T09:04:51;103082.13;;;12.67;45.92
17649;BME280;8943;51.110;-4.158;2023-02-28T09:07:19;103077.56;;;12.69;46.03
17649;BME280;8943;51.110;-4.158;2023-02-28T09:09:48;103079.97;;;12.75;46.45
17649;BME280;8943;51.110;-4.158;2023-02-28T09:12:27;103081.28;;;12.85;46.27
17649;BME280;8943;51.110;-4.158;2023-02-28T09:14:55;103088.09;;;12.92;46.17
17649;BME280;8943;51.110;-4.158;2023-02-28T09:17:25;103082.53;;;12.97;46.13
17649;BME280;8943;51.110;-4.158;2023-02-28T09:19:56;103081.59;;;12.98;46.08
17649;BME280;8943;51.110;-4.158;2023-02-28T09:22:25;103081.66;;;12.96;46.01
17649;BME280;8943;51.110;-4.158;2023-02-28T09:24:54;103081.53;;;12.99;45.95
17649;BME280;8943;51.110;-4.158;2023-02-28T09:27:23;103084.22;;;12.99;45.67
17649;BME280;8943;51.110;-4.158;2023-02-28T09:30:20;103094.75;;;13.02;46.02
17649;BME280;8943;51.110;-4.158;2023-02-28T09:32:48;103089.28;;;13.05;45.90
17649;BME280;8943;51.110;-4.158;2023-02-28T09:35:21;103088.84;;;13.14;45.61
17649;BME280;8943;51.110;-4.158;2023-02-28T09:37:51;103094.13;;;13.16;45.46
17649;BME280;8943;51.110;-4.158;2023-02-28T09:40:24;103094.94;;;13.18;45.48
17649;BME280;8943;51.110;-4.158;2023-02-28T09:42:57;103099.28;;;13.21;45.47
17649;BME280;8943;51.110;-4.158;2023-02-28T09:45:31;103083.09;;;13.24;45.44
17649;BME280;8943;51.110;-4.158;2023-02-28T09:48:04;103079.13;;;13.32;45.37
17649;BME280;8943;51.110;-4.158;2023-02-28T09:50:39;103082.28;;;13.40;45.67
17649;BME280;8943;51.110;-4.158;2023-02-28T09:53:16;103075.50;;;13.52;45.51
17649;BME280;8943;51.110;-4.158;2023-02-28T09:55:50;103072.06;;;13.68;45.38
17649;BME280;8943;51.110;-4.158;2023-02-28T09:58:27;103084.84;;;13.80;45.32
17649;BME280;8943;51.110;-4.158;2023-02-28T10:01:03;103085.34;;;13.88;45.36
17649;BME280;8943;51.110;-4.158;2023-02-28T10:03:39;103077.94;;;13.93;44.68
17649;BME280;8943;51.110;-4.158;2023-02-28T10:06:12;103079.66;;;13.94;44.72
17649;BME280;8943;51.110;-4.158;2023-02-28T10:08:47;103070.44;;;14.00;44.94
17649;BME280;8943;51.110;-4.158;2023-02-28T10:11:19;103085.28;;;14.07;44.51
17649;BME280;8943;51.110;-4.158;2023-02-28T10:13:57;103081.66;;;14.08;44.45
17649;BME280;8943;51.110;-4.158;2023-02-28T10:16:32;103088.69;;;14.10;44.23
17649;BME280;8943;51.110;-4.158;2023-02-28T10:19:05;103085.53;;;14.20;44.23
17649;BME280;8943;51.110;-4.158;2023-02-28T10:21:36;103081.91;;;14.21;44.09
17649;BME280;8943;51.110;-4.158;2023-02-28T10:24:16;103090.75;;;14.23;44.15
17649;BME280;8943;51.110;-4.158;2023-02-28T10:26:48;103084.28;;;14.27;43.81
17649;BME280;8943;51.110;-4.158;2023-02-28T10:29:18;103091.28;;;14.29;43.68
17649;BME280;8943;51.110;-4.158;2023-02-28T10:31:49;103081.91;;;14.38;43.51
17649;BME280;8943;51.110;-4.158;2023-02-28T10:34:17;103089.63;;;14.44;43.58
17649;BME280;8943;51.110;-4.158;2023-02-28T10:36:49;103076.56;;;14.55;43.52
17649;BME280;8943;51.110;-4.158;2023-02-28T10:39:36;103076.09;;;14.64;43.32
17649;BME280;8943;51.110;-4.158;2023-02-28T10:42:29;103072.59;;;14.62;43.25
17649;BME280;8943;51.110;-4.158;2023-02-28T10:45:14;103073.22;;;14.67;43.11
17649;BME280;8943;51.110;-4.158;2023-02-28T10:48:30;103071.78;;;14.78;43.01
17649;BME280;8943;51.110;-4.158;2023-02-28T10:51:35;103070.75;;;14.80;42.92
17649;BME280;8943;51.110;-4.158;2023-02-28T10:54:05;103071.63;;;14.81;42.87
17649;BME280;8943;51.110;-4.158;2023-02-28T10:57:08;103081.59;;;14.79;42.52
17649;BME280;8943;51.110;-4.158;2023-02-28T11:00:13;103070.19;;;14.74;42.74
17649;BME280;8943;51.110;-4.158;2023-02-28T11:03:23;103073.31;;;14.66;42.34
17649;BME280;8943;51.110;-4.158;2023-02-28T11:05:53;103068.53;;;14.55;42.10
17649;BME280;8943;51.110;-4.158;2023-02-28T11:08:23;103075.00;;;14.51;42.56
17649;BME280;8943;51.110;-4.158;2023-02-28T11:10:56;103077.16;;;14.43;42.38
17649;BME280;8943;51.110;-4.158;2023-02-28T11:13:29;103073.47;;;14.28;42.24
17649;BME280;8943;51.110;-4.158;2023-02-28T11:16:06;103076.56;;;14.21;42.39
17649;BME280;8943;51.110;-4.158;2023-02-28T11:18:44;103071.47;;;14.14;42.52
17649;BME280;8943;51.110;-4.158;2023-02-28T11:21:25;103070.38;;;14.18;42.86
17649;BME280;8943;51.110;-4.158;2023-02-28T11:24:04;103067.25;;;14.28;42.70
17649;BME280;8943;51.110;-4.158;2023-02-28T11:26:40;103071.75;;;14.45;42.44
17649;BME280;8943;51.110;-4.158;2023-02-28T11:29:15;103059.28;;;14.61;42.32
17649;BME280;8943;51.110;-4.158;2023-02-28T11:32:17;103068.16;;;14.79;42.27
17649;BME280;8943;51.110;-4.158;2023-02-28T11:35:00;103056.66;;;14.92;41.76
17649;BME280;8943;51.110;-4.158;2023-02-28T11:37:30;103061.28;;;15.06;41.72
17649;BME280;8943;51.110;-4.158;2023-02-28T11:39:59;103057.13;;;15.16;41.51
17649;BME280;8943;51.110;-4.158;2023-02-28T11:42:42;103053.94;;;15.26;41.42
17649;BME280;8943;51.110;-4.158;2023-02-28T11:45:36;103055.59;;;15.28;40.93
17649;BME280;8943;51.110;-4.158;2023-02-28T11:48:16;103063.56;;;15.30;41.04
17649;BME280;8943;51.110;-4.158;2023-02-28T11:50:54;103060.59;;;15.34;41.31
17649;BME280;8943;51.110;-4.158;2023-02-28T11:53:39;103050.88;;;15.32;40.88
17649;BME280;8943;51.110;-4.158;2023-02-28T11:56:17;103062.69;;;15.29;40.58
17649;BME280;8943;51.110;-4.158;2023-02-28T11:58:55;103067.34;;;15.26;40.87
17649;BME280;8943;51.110;-4.158;2023-02-28T12:01:43;103064.66;;;15.26;40.95
17649;BME280;8943;51.110;-4.158;2023-02-28T12:04:25;103064.78;;;15.24;41.06
17649;BME280;8943;51.110;-4.158;2023-02-28T12:07:08;103060.25;;;15.25;41.20
17649;BME280;8943;51.110;-4.158;2023-02-28T12:09:46;103067.09;;;15.30;40.87
17649;BME280;8943;51.110;-4.158;2023-02-28T12:12:33;103056.44;;;15.29;41.20
17649;BME280;8943;51.110;-4.158;2023-02-28T12:15:24;103059.19;;;15.27;40.87
17649;BME280;8943;51.110;-4.158;2023-02-28T12:18:05;103060.25;;;15.25;40.95
17649;BME280;8943;51.110;-4.158;2023-02-28T12:20:46;103047.09;;;15.20;40.75
17649;BME280;8943;51.110;-4.158;2023-02-28T12:26:13;103048.41;;;15.29;41.25
17649;BME280;8943;51.110;-4.158;2023-02-28T12:28:49;103054.38;;;15.34;40.95
17649;BME280;8943;51.110;-4.158;2023-02-28T12:31:20;103052.44;;;15.36;41.03
17649;BME280;8943;51.110;-4.158;2023-02-28T12:33:52;103043.28;;;15.40;40.78
17649;BME280;8943;51.110;-4.158;2023-02-28T12:36:22;103044.94;;;15.42;40.78
17649;BME280;8943;51.110;-4.158;2023-02-28T12:38:58;103040.31;;;15.44;40.91
17649;BME280;8943;51.110;-4.158;2023-02-28T12:41:36;103038.13;;;15.51;40.83
17649;BME280;8943;51.110;-4.158;2023-02-28T12:44:11;103029.41;;;15.63;40.97
17649;BME280;8943;51.110;-4.158;2023-02-28T12:46:45;103027.56;;;15.80;41.08
17649;BME280;8943;51.110;-4.158;2023-02-28T12:49:23;103025.50;;;15.99;41.04
17649;BME280;8943;51.110;-4.158;2023-02-28T12:51:53;103018.06;;;16.18;40.90
17649;BME280;8943;51.110;-4.158;2023-02-28T12:54:26;103017.91;;;16.36;40.57
17649;BME280;8943;51.110;-4.158;2023-02-28T12:57:02;103002.72;;;16.49;40.04
17649;BME280;8943;51.110;-4.158;2023-02-28T12:59:40;103007.25;;;16.63;40.23
17649;BME280;8943;51.110;-4.158;2023-02-28T13:02:27;103009.13;;;16.77;40.00
17649;BME280;8943;51.110;-4.158;2023-02-28T13:05:10;103004.47;;;16.93;39.30
17649;BME280;8943;51.110;-4.158;2023-02-28T13:08:28;102999.88;;;16.95;38.99
17649;BME280;8943;51.110;-4.158;2023-02-28T13:11:02;103003.53;;;16.94;39.01
17649;BME280;8943;51.110;-4.158;2023-02-28T13:13:42;102997.19;;;16.95;38.78
17649;BME280;8943;51.110;-4.158;2023-02-28T13:16:12;102990.25;;;16.91;38.80
17649;BME280;8943;51.110;-4.158;2023-02-28T13:18:43;102990.44;;;16.88;38.12
17649;BME280;8943;51.110;-4.158;2023-02-28T13:21:23;102990.56;;;16.72;38.17
17649;BME280;8943;51.110;-4.158;2023-02-28T13:24:01;102985.25;;;16.56;38.32
17649;BME280;8943;51.110;-4.158;2023-02-28T13:29:38;102971.78;;;16.42;38.39
17649;BME280;8943;51.110;-4.158;2023-02-28T13:38:32;102967.38;;;16.41;38.45